Time;durP1;ratioP1;P1;durP2;ratioP2;P2;SDS_P1;SDS_P2;PMS_P1;PMS_P2;Temp;Humidity;BMP_temperature;BMP_pressure;BME280_temperature;BME280_humidity;BME280_pressure;Samples;Min_cycle;Max_cycle;Signal;HPM_P1;HPM_P2
2021/09/07 00:01:40;;;;;;;4.65;2.55;;;;;;;15.47;64.27;101317.84;5035008;28;20024;-63
2021/09/07 00:04:05;;;;;;;6.18;3.70;;;;;;;15.61;64.76;101346.91;5053168;28;20483;-62
2021/09/07 00:06:31;;;;;;;7.93;3.30;;;;;;;15.90;64.71;101391.16;5052699;28;20534;-64
2021/09/07 00:08:57;;;;;;;8.82;3.08;;;;;;;15.82;64.98;101396.16;5052678;28;20465;-65
2021/09/07 00:11:22;;;;;;;5.72;3.47;;;;;;;15.81;65.17;101391.75;5052593;28;20037;-63
2021/09/07 00:13:48;;;;;;;9.10;3.40;;;;;;;15.68;65.45;101377.47;5052638;28;20029;-62
2021/09/07 00:16:14;;;;;;;5.07;2.45;;;;;;;15.75;65.00;101381.16;5051905;28;20056;-62
2021/09/07 00:18:39;;;;;;;5.57;2.90;;;;;;;15.69;65.04;101379.25;5042336;28;20041;-63
2021/09/07 00:21:05;;;;;;;4.97;3.30;;;;;;;15.42;65.27;101337.66;5045631;28;20033;-70
2021/09/07 00:23:30;;;;;;;6.45;3.22;;;;;;;15.68;65.17;101391.38;5052151;28;20167;-65
2021/09/07 00:25:55;;;;;;;7.57;3.03;;;;;;;15.40;65.54;101340.19;5017231;28;20033;-64
2021/09/07 00:28:21;;;;;;;8.30;3.03;;;;;;;15.59;65.46;101380.69;5044844;28;20025;-64
2021/09/07 00:30:46;;;;;;;7.47;3.70;;;;;;;15.59;65.31;101388.50;5050454;28;20025;-65
2021/09/07 00:33:12;;;;;;;5.40;2.78;;;;;;;15.50;65.45;101363.06;5034171;28;20029;-64
2021/09/07 00:35:37;;;;;;;7.82;3.63;;;;;;;15.47;66.25;101385.50;5039981;28;20425;-63
2021/09/07 00:38:03;;;;;;;5.82;3.28;;;;;;;15.43;66.23;101375.84;5033553;28;20022;-65
2021/09/07 00:40:29;;;;;;;8.88;3.67;;;;;;;15.55;65.88;101394.41;5036238;28;20033;-67
2021/09/07 00:42:54;;;;;;;8.57;3.28;;;;;;;15.48;66.50;101392.47;5033327;28;20026;-64
2021/09/07 00:45:20;;;;;;;6.40;3.40;;;;;;;15.24;66.21;101343.13;5034524;28;20022;-63
2021/09/07 00:47:46;;;;;;;8.60;3.60;;;;;;;15.38;66.38;101367.88;5033111;28;20033;-63
2021/09/07 00:50:13;;;;;;;9.43;3.88;;;;;;;15.51;66.26;101387.38;5030153;28;20034;-68
2021/09/07 00:52:40;;;;;;;4.60;3.00;;;;;;;15.52;65.97;101389.13;5035438;28;20132;-62
2021/09/07 00:55:07;;;;;;;7.20;3.70;;;;;;;15.45;66.04;101375.06;5030186;28;20029;-65
2021/09/07 00:57:34;;;;;;;9.63;3.72;;;;;;;15.30;65.73;101341.63;5032658;28;20024;-70
2021/09/07 01:00:01;;;;;;;8.15;3.40;;;;;;;15.51;65.80;101375.25;5032803;28;20021;-66
2021/09/07 01:02:26;;;;;;;6.05;3.67;;;;;;;15.54;65.69;101382.28;5033422;28;20033;-65
2021/09/07 01:04:52;;;;;;;6.30;3.10;;;;;;;15.30;65.68;101343.34;5034362;28;20510;-64
2021/09/07 01:07:18;;;;;;;7.18;3.58;;;;;;;15.51;66.04;101393.47;5032707;28;20030;-62
2021/09/07 01:09:44;;;;;;;8.70;3.10;;;;;;;15.52;65.88;101399.53;5032736;28;20025;-62
2021/09/07 01:12:10;;;;;;;7.68;3.05;;;;;;;15.57;65.58;101395.38;5031871;28;20025;-63
2021/09/07 01:14:38;;;;;;;7.30;3.00;;;;;;;15.59;65.53;101406.72;5032090;28;20040;-65
2021/09/07 01:17:10;;;;;;;6.25;3.03;;;;;;;15.58;65.59;101402.34;5034623;28;20109;-65
2021/09/07 01:19:35;;;;;;;7.50;3.10;;;;;;;15.53;65.58;101396.97;5033269;28;20049;-64
2021/09/07 01:22:01;;;;;;;7.20;3.17;;;;;;;15.35;65.80;101401.59;5034426;28;20032;-63
2021/09/07 01:24:27;;;;;;;7.78;3.20;;;;;;;15.11;66.63;101401.69;5043553;28;20458;-67
2021/09/07 01:26:53;;;;;;;8.02;3.20;;;;;;;15.23;66.38;101404.69;5050965;28;20032;-66
2021/09/07 01:29:19;;;;;;;9.00;3.38;;;;;;;15.36;66.29;101395.56;5050782;28;20029;-67
2021/09/07 01:31:45;;;;;;;7.90;3.25;;;;;;;15.50;65.54;101398.59;5051261;28;20093;-66
2021/09/07 01:34:19;;;;;;;6.88;3.20;;;;;;;15.67;65.00;101400.00;5051177;28;20078;-67
2021/09/07 01:36:44;;;;;;;6.55;3.90;;;;;;;15.83;64.35;101400.53;5050825;28;20021;-66
2021/09/07 01:39:09;;;;;;;7.68;4.00;;;;;;;16.09;63.39;101400.44;5050709;28;20040;-69
2021/09/07 01:41:35;;;;;;;8.82;4.18;;;;;;;16.27;62.61;101398.34;5050586;28;20017;-72
2021/09/07 01:44:01;;;;;;;8.90;3.90;;;;;;;16.26;62.10;101386.16;5051021;28;20027;-68
2021/09/07 01:46:26;;;;;;;8.45;4.00;;;;;;;16.33;61.97;101398.50;5050766;28;20118;-66
2021/09/07 01:48:52;;;;;;;9.80;4.53;;;;;;;16.24;62.43;101403.47;5033363;28;20471;-67
2021/09/07 01:51:17;;;;;;;6.90;3.65;;;;;;;15.95;63.12;101390.50;5051222;28;20485;-67
2021/09/07 01:54:02;;;;;;;8.75;3.80;;;;;;;16.06;62.61;101392.50;5050976;28;20029;-65
2021/09/07 01:56:28;;;;;;;8.57;3.53;;;;;;;15.63;63.13;101343.50;4989223;28;20042;-67
2021/09/07 01:58:53;;;;;;;6.35;3.90;;;;;;;15.92;63.50;101390.38;4989573;28;20097;-67
2021/09/07 02:01:19;;;;;;;6.25;3.67;;;;;;;15.77;63.78;101390.78;4989095;28;20038;-66
2021/09/07 02:03:44;;;;;;;6.35;3.30;;;;;;;15.41;64.94;101390.53;4989364;28;20027;-67
2021/09/07 02:06:10;;;;;;;5.22;3.08;;;;;;;15.37;64.77;101367.00;4988944;28;20065;-65
2021/09/07 02:08:35;;;;;;;7.53;3.38;;;;;;;15.27;65.28;101395.28;4989026;28;20034;-68
2021/09/07 02:11:01;;;;;;;5.32;3.22;;;;;;;15.17;65.56;101388.88;4989042;28;20038;-70
2021/09/07 02:13:26;;;;;;;8.05;3.30;;;;;;;15.30;65.15;101380.66;4988999;28;20041;-69
2021/09/07 02:15:51;;;;;;;7.50;3.75;;;;;;;14.89;66.52;101380.16;4989170;28;20042;-67
2021/09/07 02:18:17;;;;;;;8.05;3.70;;;;;;;14.84;66.30;101382.63;4988859;28;20054;-67
2021/09/07 02:20:43;;;;;;;9.68;3.80;;;;;;;14.87;66.19;101376.63;4989521;28;20032;-68
2021/09/07 02:23:08;;;;;;;6.13;3.33;;;;;;;14.56;66.27;101344.34;4988646;28;20058;-69
2021/09/07 02:25:34;;;;;;;7.55;3.70;;;;;;;14.29;67.79;101380.63;4989254;28;20030;-68
2021/09/07 02:27:59;;;;;;;6.53;3.72;;;;;;;14.16;68.22;101374.13;5033663;28;20395;-65
2021/09/07 02:30:26;;;;;;;7.22;3.83;;;;;;;14.14;68.56;101386.16;5050772;28;20037;-66
2021/09/07 02:32:51;;;;;;;10.32;3.92;;;;;;;14.18;68.25;101382.81;5050460;28;20486;-66
2021/09/07 02:35:17;;;;;;;7.70;3.75;;;;;;;14.17;68.22;101391.47;5050435;28;20071;-66
2021/09/07 02:37:42;;;;;;;6.65;3.72;;;;;;;14.09;68.53;101391.16;5050588;28;20106;-66
2021/09/07 02:40:08;;;;;;;9.07;3.63;;;;;;;14.07;68.74;101385.91;5050199;28;20032;-66
2021/09/07 02:42:33;;;;;;;4.97;3.15;;;;;;;13.99;69.04;101389.06;5050622;28;20028;-66
2021/09/07 02:44:59;;;;;;;9.60;4.18;;;;;;;13.84;68.86;101356.47;5050274;28;20025;-65
2021/09/07 02:47:24;;;;;;;7.57;3.50;;;;;;;13.98;68.90;101390.78;5050451;28;20029;-66
2021/09/07 02:49:50;;;;;;;5.38;3.47;;;;;;;13.88;69.62;101399.00;5050365;28;20061;-66
2021/09/07 02:52:15;;;;;;;7.80;3.30;;;;;;;13.77;69.40;101348.41;5050100;28;20021;-66
2021/09/07 02:54:42;;;;;;;8.15;3.28;;;;;;;14.19;68.70;101394.97;5051927;28;20139;-66
2021/09/07 02:57:07;;;;;;;6.90;3.55;;;;;;;14.14;68.92;101396.53;5054325;28;20024;-65
2021/09/07 02:59:32;;;;;;;15.15;3.53;;;;;;;14.14;68.80;101380.94;5018875;28;20515;-64
2021/09/07 03:01:58;;;;;;;8.18;2.95;;;;;;;14.23;68.88;101383.88;5054238;28;20031;-65
2021/09/07 03:04:23;;;;;;;19.25;3.67;;;;;;;14.20;69.27;101396.75;5053989;28;20479;-67
2021/09/07 03:06:49;;;;;;;6.68;3.20;;;;;;;14.35;69.14;101394.72;5054311;28;20025;-66
2021/09/07 03:09:15;;;;;;;6.80;3.30;;;;;;;14.39;68.87;101391.41;5053540;28;20057;-64
2021/09/07 03:11:41;;;;;;;8.75;3.25;;;;;;;14.39;68.53;101400.91;5053837;28;20021;-67
2021/09/07 03:14:06;;;;;;;8.52;3.35;;;;;;;14.46;68.25;101397.72;5053990;28;20036;-64
2021/09/07 03:16:33;;;;;;;7.43;3.63;;;;;;;14.55;67.56;101392.84;5053609;28;20021;-66
2021/09/07 03:19:00;;;;;;;8.68;3.78;;;;;;;14.72;64.88;101387.38;5052796;28;20048;-63
2021/09/07 03:21:26;;;;;;;11.90;4.82;;;;;;;14.86;63.35;101395.66;5052945;28;20029;-69
2021/09/07 03:23:51;;;;;;;10.23;5.40;;;;;;;15.03;61.52;101404.03;5053101;28;20040;-66
2021/09/07 03:26:17;;;;;;;10.63;4.90;;;;;;;15.15;60.70;101411.34;5029736;28;20048;-66
2021/09/07 03:28:42;;;;;;;11.50;6.10;;;;;;;15.13;59.75;101410.44;5053434;28;20055;-66
2021/09/07 03:31:08;;;;;;;11.80;5.57;;;;;;;15.05;59.81;101402.34;5001765;28;20454;-65
2021/09/07 03:33:33;;;;;;;15.48;5.97;;;;;;;14.44;60.04;101284.16;5053518;28;20456;-66
2021/09/07 03:35:58;;;;;;;17.38;6.63;;;;;;;15.07;59.97;101379.03;5053104;28;20029;-65
2021/09/07 03:38:24;;;;;;;14.82;6.43;;;;;;;14.80;60.11;101343.47;5052830;28;20048;-64
2021/09/07 03:40:49;;;;;;;15.98;6.88;;;;;;;15.19;60.01;101426.25;5053061;28;20060;-64
2021/09/07 03:43:15;;;;;;;16.30;6.85;;;;;;;15.02;60.54;101423.94;5053196;28;20031;-65
2021/09/07 03:45:41;;;;;;;12.93;6.38;;;;;;;15.01;60.83;101427.38;5052830;28;20021;-65
2021/09/07 03:48:07;;;;;;;12.43;6.35;;;;;;;14.95;60.79;101436.69;5052902;28;20040;-64
2021/09/07 03:50:32;;;;;;;14.43;6.85;;;;;;;14.91;61.07;101440.03;5053186;28;20442;-64
2021/09/07 03:52:58;;;;;;;14.40;6.45;;;;;;;14.83;61.37;101442.38;5052720;28;20025;-65
2021/09/07 03:55:23;;;;;;;16.67;6.95;;;;;;;14.86;61.24;101445.94;5033393;28;20037;-66
2021/09/07 03:57:49;;;;;;;17.40;6.53;;;;;;;14.53;61.20;101407.50;5052802;28;20032;-64
2021/09/07 04:00:16;;;;;;;13.25;5.90;;;;;;;14.64;61.82;101444.28;5051234;28;20029;-65
2021/09/07 04:02:41;;;;;;;15.90;6.85;;;;;;;14.55;61.88;101441.31;5044410;28;20510;-69
2021/09/07 04:05:08;;;;;;;12.43;5.97;;;;;;;14.68;61.62;101442.72;5032548;28;20033;-67
2021/09/07 04:07:34;;;;;;;12.38;6.57;;;;;;;14.78;61.03;101443.88;5050610;28;20094;-67
2021/09/07 04:10:00;;;;;;;18.92;5.97;;;;;;;14.84;60.90;101438.91;5053032;28;20115;-68
2021/09/07 04:12:26;;;;;;;15.73;6.68;;;;;;;14.64;60.92;101417.38;5053099;28;20032;-68
2021/09/07 04:14:51;;;;;;;13.98;6.60;;;;;;;14.77;61.28;101453.41;5053036;28;20033;-68
2021/09/07 04:17:17;;;;;;;18.00;6.47;;;;;;;14.77;61.52;101431.75;5033882;28;20036;-70
2021/09/07 04:19:44;;;;;;;14.13;6.97;;;;;;;14.71;61.75;101438.47;5032781;28;20060;-65
2021/09/07 04:22:10;;;;;;;17.40;6.90;;;;;;;13.95;62.85;101362.09;5033399;28;20033;-67
2021/09/07 04:24:35;;;;;;;15.15;5.93;;;;;;;14.16;63.15;101403.53;5039231;28;20080;-67
2021/09/07 04:27:01;;;;;;;13.93;6.38;;;;;;;14.27;63.77;101442.91;5032972;28;20759;-66
2021/09/07 04:29:26;;;;;;;20.75;7.22;;;;;;;14.44;64.03;101437.44;5033037;28;20033;-66
2021/09/07 04:31:52;;;;;;;15.18;7.25;;;;;;;14.42;64.76;101460.78;5032671;28;20033;-66
2021/09/07 04:34:17;;;;;;;22.20;7.60;;;;;;;14.47;64.55;101447.97;5032825;28;20036;-66
2021/09/07 04:36:43;;;;;;;18.90;6.35;;;;;;;14.65;64.47;101455.56;5014730;28;20030;-66
2021/09/07 04:39:08;;;;;;;21.77;5.95;;;;;;;14.61;63.29;101438.94;5032895;28;20061;-66
2021/09/07 04:41:34;;;;;;;13.43;6.30;;;;;;;14.39;63.58;101432.97;5032805;28;20029;-66
2021/09/07 04:43:59;;;;;;;15.13;8.13;;;;;;;14.48;63.27;101454.91;5032685;28;20034;-66
2021/09/07 04:46:25;;;;;;;16.45;8.32;;;;;;;14.31;63.52;101460.38;4981669;28;20412;-66
2021/09/07 04:48:54;;;;;;;19.40;8.35;;;;;;;13.49;66.43;101449.41;5015186;28;20048;-66
2021/09/07 04:51:24;;;;;;;21.15;10.27;;;;;;;13.35;68.00;101456.59;5014253;28;20038;-69
2021/09/07 04:53:49;;;;;;;23.55;9.70;;;;;;;13.59;67.11;101464.53;5032873;28;20034;-66
2021/09/07 04:56:15;;;;;;;18.00;9.45;;;;;;;13.79;66.58;101468.75;5032580;28;20090;-66
2021/09/07 04:58:41;;;;;;;18.88;9.93;;;;;;;13.99;66.07;101465.22;5032446;28;20033;-66
2021/09/07 05:01:06;;;;;;;18.65;10.13;;;;;;;14.07;66.29;101468.13;5032168;28;20091;-66
2021/09/07 05:03:32;;;;;;;17.50;8.93;;;;;;;13.98;66.68;101467.75;5032437;28;20026;-65
2021/09/07 05:05:58;;;;;;;20.15;9.65;;;;;;;14.10;65.98;101465.63;5032348;28;20116;-66
2021/09/07 05:08:24;;;;;;;24.80;9.80;;;;;;;14.23;66.93;101459.19;5032419;28;20435;-65
2021/09/07 05:10:49;;;;;;;24.27;9.98;;;;;;;14.36;66.30;101471.81;5032307;28;20472;-66
2021/09/07 05:13:15;;;;;;;21.40;8.73;;;;;;;14.36;66.17;101466.63;4980858;28;20117;-66
2021/09/07 05:15:40;;;;;;;23.10;9.27;;;;;;;14.19;67.73;101466.00;5032122;28;20029;-66
2021/09/07 05:18:06;;;;;;;30.48;10.68;;;;;;;13.96;68.26;101420.97;5031017;28;20021;-66
2021/09/07 05:20:31;;;;;;;49.83;14.25;;;;;;;14.27;68.64;101465.38;5031863;28;20036;-66
2021/09/07 05:22:56;;;;;;;27.20;9.50;;;;;;;14.25;69.63;101444.56;5032369;28;20033;-67
2021/09/07 05:25:22;;;;;;;17.67;7.00;;;;;;;14.38;68.59;101459.78;5032148;28;20036;-71
2021/09/07 05:27:48;;;;;;;13.38;6.93;;;;;;;14.39;69.13;101450.25;5032168;28;20511;-66
2021/09/07 05:30:14;;;;;;;14.18;6.10;;;;;;;14.39;69.75;101452.88;5014215;28;20040;-67
2021/09/07 05:32:41;;;;;;;13.30;6.10;;;;;;;14.29;70.23;101440.38;5031612;28;20029;-66
2021/09/07 05:35:07;;;;;;;16.55;6.57;;;;;;;14.11;71.08;101431.06;5031478;28;20115;-69
2021/09/07 05:37:39;;;;;;;10.15;5.40;;;;;;;14.20;70.86;101439.19;5031792;28;20064;-65
2021/09/07 05:40:11;;;;;;;16.50;5.13;;;;;;;14.14;71.68;101445.88;5031741;28;20026;-66
2021/09/07 05:42:38;;;;;;;13.20;5.20;;;;;;;14.04;71.46;101442.03;5031696;28;20029;-66
2021/09/07 05:45:04;;;;;;;9.80;4.07;;;;;;;14.06;71.62;101430.00;5031559;28;20040;-65
2021/09/07 05:47:29;;;;;;;7.50;3.88;;;;;;;14.06;70.87;101441.25;5031400;28;20033;-66
2021/09/07 05:49:57;;;;;;;10.63;3.88;;;;;;;14.01;71.75;101416.84;5031946;28;20022;-66
2021/09/07 05:52:22;;;;;;;7.53;3.33;;;;;;;14.18;71.11;101419.19;5031787;28;20108;-65
2021/09/07 05:54:47;;;;;;;7.25;3.50;;;;;;;14.32;71.46;101417.13;5031609;28;20036;-66
2021/09/07 05:57:13;;;;;;;6.45;3.42;;;;;;;14.57;70.98;101424.09;5031607;28;20061;-66
2021/09/07 05:59:38;;;;;;;8.52;3.15;;;;;;;14.71;68.17;101435.88;5031657;28;20025;-66
2021/09/07 06:02:04;;;;;;;11.52;3.80;;;;;;;14.68;68.45;101385.53;5031435;28;20060;-66
2021/09/07 06:04:29;;;;;;;6.35;2.78;;;;;;;15.00;66.99;101417.81;5031378;28;20034;-66
2021/09/07 06:06:55;;;;;;;7.53;3.30;;;;;;;15.01;67.83;101401.38;5031177;28;20048;-66
2021/09/07 06:09:21;;;;;;;11.85;3.85;;;;;;;15.27;67.19;101424.78;5031495;28;20031;-66
2021/09/07 06:11:46;;;;;;;11.85;3.72;;;;;;;15.48;64.60;101413.31;5031643;28;20025;-66
2021/09/07 06:14:12;;;;;;;7.82;2.53;;;;;;;15.60;64.96;101416.31;5031275;28;20032;-72
2021/09/07 06:16:37;;;;;;;10.90;3.40;;;;;;;15.53;65.66;101377.91;5031469;28;20022;-66
2021/09/07 06:19:03;;;;;;;10.48;2.60;;;;;;;15.84;60.75;101403.19;5031615;28;20048;-66
2021/09/07 06:21:29;;;;;;;4.95;2.60;;;;;;;16.06;60.67;101424.63;5031517;28;20026;-66
2021/09/07 06:23:55;;;;;;;4.70;2.50;;;;;;;16.18;58.88;101414.59;5031310;28;20056;-66
2021/09/07 06:26:20;;;;;;;5.45;2.88;;;;;;;16.33;59.81;101415.88;5031338;28;20049;-65
2021/09/07 06:28:46;;;;;;;6.20;2.50;;;;;;;16.22;59.14;101375.59;5015669;28;20025;-66
2021/09/07 06:31:11;;;;;;;7.63;2.60;;;;;;;16.37;58.43;101375.16;5034925;28;20025;-66
2021/09/07 06:33:37;;;;;;;7.32;2.47;;;;;;;16.73;57.33;101409.16;5035319;28;20531;-66
2021/09/07 06:36:03;;;;;;;6.32;2.60;;;;;;;16.83;57.76;101415.50;5035298;28;20052;-66
2021/09/07 06:38:28;;;;;;;7.47;3.00;;;;;;;16.85;56.00;101377.31;5035136;28;20029;-64
2021/09/07 06:40:54;;;;;;;6.25;2.38;;;;;;;17.28;55.86;101409.72;5034972;28;20022;-66
2021/09/07 06:43:19;;;;;;;9.15;2.53;;;;;;;17.19;54.44;101406.00;5034811;28;20028;-66
2021/09/07 06:45:45;;;;;;;4.38;2.30;;;;;;;17.25;56.02;101427.03;5034774;28;20060;-66
2021/09/07 06:48:10;;;;;;;6.50;2.00;;;;;;;17.28;54.67;101420.16;5035195;28;20025;-66
2021/09/07 06:50:36;;;;;;;4.60;2.40;;;;;;;17.51;54.91;101421.53;5035548;28;20036;-66
2021/09/07 06:53:02;;;;;;;3.70;2.03;;;;;;;17.50;53.27;101431.13;5035237;28;20021;-66
2021/09/07 06:55:27;;;;;;;9.82;2.50;;;;;;;17.32;53.03;101395.03;5017326;28;20476;-66
2021/09/07 06:57:53;;;;;;;4.55;1.75;;;;;;;17.73;52.38;101436.00;5034757;28;20480;-66
2021/09/07 07:00:19;;;;;;;5.45;2.03;;;;;;;17.90;52.44;101400.69;5034561;28;20104;-66
2021/09/07 07:02:44;;;;;;;4.22;1.80;;;;;;;18.31;51.85;101438.16;5034898;28;20450;-66
2021/09/07 07:05:10;;;;;;;6.55;2.03;;;;;;;18.53;51.39;101439.44;4999569;28;20051;-64
2021/09/07 07:07:36;;;;;;;7.00;1.98;;;;;;;18.38;51.96;101393.88;5034578;28;20061;-66
2021/09/07 07:10:02;;;;;;;5.20;2.00;;;;;;;19.04;49.82;101443.03;5034617;28;20457;-66
2021/09/07 07:12:27;;;;;;;4.95;1.80;;;;;;;19.31;48.95;101447.00;5034659;28;20076;-66
2021/09/07 07:14:52;;;;;;;6.07;1.88;;;;;;;19.58;48.72;101446.56;5015965;28;20428;-65
2021/09/07 07:17:18;;;;;;;8.82;2.25;;;;;;;19.65;47.96;101439.66;5034470;28;20029;-65
2021/09/07 07:19:46;;;;;;;6.82;2.33;;;;;;;19.68;47.60;101451.09;5034802;28;20119;-66
2021/09/07 07:22:11;;;;;;;6.50;1.83;;;;;;;19.63;48.54;101431.78;5034156;28;20041;-66
2021/09/07 07:24:36;;;;;;;5.95;1.90;;;;;;;19.69;48.58;101434.50;5034179;28;20033;-66
2021/09/07 07:27:02;;;;;;;10.10;2.63;;;;;;;19.83;49.49;101444.34;5033743;28;20024;-65
2021/09/07 07:29:28;;;;;;;8.38;3.05;;;;;;;20.07;50.03;101429.81;5033847;28;20495;-66
2021/09/07 07:31:54;;;;;;;8.45;1.98;;;;;;;20.17;49.02;101442.19;5040137;28;20466;-65
2021/09/07 07:34:19;;;;;;;6.18;1.80;;;;;;;20.32;47.80;101437.13;5043817;28;20474;-66
2021/09/07 07:36:45;;;;;;;9.15;2.25;;;;;;;20.52;48.74;101437.38;5049810;28;20029;-66
2021/09/07 07:39:10;;;;;;;8.15;2.05;;;;;;;20.57;48.50;101441.78;5052861;28;20407;-66
2021/09/07 07:41:36;;;;;;;6.45;2.00;;;;;;;20.59;47.25;101440.94;5040233;28;20051;-66
2021/09/07 07:44:01;;;;;;;9.45;2.72;;;;;;;20.43;47.31;101433.75;5032044;28;20129;-66
2021/09/07 07:46:27;;;;;;;5.25;1.80;;;;;;;20.40;46.65;101439.84;5044345;28;20467;-66
2021/09/07 07:48:53;;;;;;;6.70;2.40;;;;;;;20.39;48.54;101445.97;5053936;28;20495;-66
2021/09/07 07:51:19;;;;;;;22.90;5.05;;;;;;;20.28;50.96;101451.06;5053628;28;20025;-66
2021/09/07 07:53:45;;;;;;;8.35;2.03;;;;;;;20.19;49.25;101441.34;5053411;28;20025;-66
2021/09/07 07:56:10;;;;;;;10.98;2.30;;;;;;;20.23;49.69;101446.63;5053706;28;20162;-66
2021/09/07 07:58:36;;;;;;;19.17;4.25;;;;;;;20.07;49.48;101406.22;5053673;28;20032;-66
2021/09/07 08:01:03;;;;;;;8.85;2.42;;;;;;;20.41;49.25;101441.63;5053628;28;20029;-66
2021/09/07 08:03:29;;;;;;;11.18;3.25;;;;;;;20.53;49.24;101433.88;5053415;28;20029;-66
2021/09/07 08:05:54;;;;;;;13.13;3.00;;;;;;;20.59;48.21;101425.19;5053574;28;20505;-64
2021/09/07 08:08:19;;;;;;;5.55;1.92;;;;;;;20.56;47.64;101424.28;5053450;28;20040;-66
2021/09/07 08:10:46;;;;;;;7.15;2.33;;;;;;;20.53;49.57;101426.00;5052849;28;20475;-67
2021/09/07 08:13:11;;;;;;;6.93;2.05;;;;;;;20.53;49.67;101427.75;5053327;28;20087;-66
2021/09/07 08:15:37;;;;;;;10.75;4.00;;;;;;;20.45;50.17;101437.25;5053400;28;20468;-66
2021/09/07 08:18:03;;;;;;;28.63;4.82;;;;;;;20.51;50.39;101437.34;5053270;28;20032;-66
2021/09/07 08:20:30;;;;;;;17.05;4.30;;;;;;;20.60;49.53;101440.06;5053716;28;20053;-65
2021/09/07 08:22:56;;;;;;;11.15;2.50;;;;;;;20.64;50.45;101441.00;5052882;28;20029;-66
2021/09/07 08:25:22;;;;;;;9.35;3.05;;;;;;;20.47;49.65;101417.19;5034959;28;20028;-66
2021/09/07 08:27:47;;;;;;;14.20;3.88;;;;;;;20.39;49.14;101404.00;5052842;28;20025;-67
2021/09/07 08:30:15;;;;;;;7.65;2.15;;;;;;;20.70;48.61;101435.81;5053140;28;20032;-66
2021/09/07 08:32:42;;;;;;;26.13;4.50;;;;;;;20.72;50.04;101435.84;5052715;28;20514;-66
2021/09/07 08:35:11;;;;;;;28.60;5.63;;;;;;;20.66;50.18;101437.53;5053024;28;20048;-69
2021/09/07 08:37:37;;;;;;;;;;;;;;;20.66;50.18;101444.50;5053190;28;20025;-66
2021/09/07 08:40:08;;;;;;;13.65;2.95;;;;;;;20.65;49.58;101450.63;5052623;28;19905;-66
2021/09/07 08:42:34;;;;;;;12.98;2.63;;;;;;;20.55;49.56;101407.66;5017600;28;20121;-66
2021/09/07 08:45:03;;;;;;;12.45;2.65;;;;;;;20.76;49.35;101443.78;5052754;28;20029;-66
2021/09/07 08:47:29;;;;;;;19.48;4.00;;;;;;;20.76;49.62;101449.03;5052487;28;20453;-66
2021/09/07 08:49:55;;;;;;;11.73;3.47;;;;;;;20.72;48.86;101441.09;5052465;28;20474;-66
2021/09/07 08:52:22;;;;;;;21.10;4.20;;;;;;;20.79;50.60;101443.81;5051466;28;20060;-66
2021/09/07 08:54:49;;;;;;;9.10;2.40;;;;;;;20.84;48.57;101444.72;5052380;28;20029;-66
2021/09/07 08:57:15;;;;;;;7.53;2.47;;;;;;;20.83;47.92;101432.47;5052372;28;20033;-66
2021/09/07 08:59:40;;;;;;;12.57;3.00;;;;;;;20.92;47.79;101430.81;5052999;28;20499;-65
2021/09/07 09:02:14;;;;;;;7.35;2.42;;;;;;;21.04;48.23;101436.16;5052671;28;20029;-66
2021/09/07 09:04:54;;;;;;;13.00;3.35;;;;;;;21.18;48.00;101423.16;5034478;28;20407;-66
2021/09/07 09:07:24;;;;;;;17.15;2.97;;;;;;;21.29;46.86;101424.13;5051879;28;20063;-66
2021/09/07 09:09:51;;;;;;;8.98;2.30;;;;;;;21.33;46.27;101423.28;5034840;28;20499;-66
2021/09/07 09:12:28;;;;;;;18.70;4.38;;;;;;;21.53;47.42;101411.16;5052351;28;20450;-66
2021/09/07 09:14:54;;;;;;;5.30;2.13;;;;;;;21.65;46.16;101417.41;5052106;28;20032;-66
2021/09/07 09:17:19;;;;;;;9.02;3.00;;;;;;;21.52;45.81;101410.28;5051995;28;20400;-66
2021/09/07 09:19:52;;;;;;;7.75;1.92;;;;;;;21.38;46.54;101412.78;5052430;28;20049;-66
2021/09/07 09:22:18;;;;;;;13.32;2.72;;;;;;;21.25;47.41;101410.97;5052068;28;20107;-66
2021/09/07 09:24:43;;;;;;;8.75;2.65;;;;;;;21.17;47.17;101408.25;5052114;28;20191;-66
2021/09/07 09:27:09;;;;;;;10.82;2.72;;;;;;;21.24;47.08;101409.22;5051754;28;20471;-66
2021/09/07 09:29:38;;;;;;;23.45;5.07;;;;;;;21.46;47.48;101405.88;5051602;28;20037;-70
2021/09/07 09:32:06;;;;;;;12.93;2.75;;;;;;;21.57;46.07;101381.44;5051524;28;20037;-66
2021/09/07 09:34:38;;;;;;;25.05;5.45;;;;;;;21.65;46.36;101404.25;5051244;28;20503;-67
2021/09/07 09:37:12;;;;;;;23.80;4.35;;;;;;;21.63;46.21;101403.38;5051911;28;20410;-66
2021/09/07 09:39:47;;;;;;;12.35;2.72;;;;;;;21.22;45.85;101334.78;5051591;28;20025;-66
2021/09/07 09:42:29;;;;;;;14.23;3.17;;;;;;;21.66;46.48;101392.00;5051552;28;20024;-66
2021/09/07 09:45:03;;;;;;;29.15;5.07;;;;;;;21.71;46.15;101389.38;5051442;28;20033;-66
2021/09/07 09:47:39;;;;;;;11.13;2.55;;;;;;;21.76;46.08;101392.94;5051448;28;20487;-66
2021/09/07 09:50:05;;;;;;;28.63;5.50;;;;;;;21.92;46.67;101389.53;5051557;28;20036;-66
2021/09/07 09:52:37;;;;;;;26.23;5.47;;;;;;;21.95;44.54;101391.28;5016704;28;20124;-66
2021/09/07 09:55:05;;;;;;;18.02;3.83;;;;;;;21.75;44.30;101344.75;5051490;28;20025;-66
2021/09/07 09:57:34;;;;;;;22.40;4.82;;;;;;;22.02;45.23;101376.41;5051218;28;20063;-67
2021/09/07 10:00:02;;;;;;;18.92;3.72;;;;;;;21.94;44.24;101373.75;5050943;28;20709;-66
2021/09/07 10:02:28;;;;;;;8.50;1.90;;;;;;;21.85;44.53;101352.69;5047227;28;20506;-68
2021/09/07 10:04:54;;;;;;;4.95;1.90;;;;;;;22.05;45.21;101372.03;5040729;28;20075;-68
2021/09/07 10:07:20;;;;;;;6.57;2.13;;;;;;;22.12;44.83;101365.94;5041501;28;20128;-67
2021/09/07 10:09:48;;;;;;;5.13;1.90;;;;;;;22.12;45.74;101357.19;5041940;28;20048;-66
2021/09/07 10:12:19;;;;;;;12.65;1.98;;;;;;;22.57;43.73;101357.31;5040472;28;20048;-69
2021/09/07 10:15:01;;;;;;;5.40;1.73;;;;;;;22.63;43.41;101359.97;5039799;28;20029;-69
2021/09/07 10:17:47;;;;;;;3.78;1.73;;;;;;;22.38;42.29;101338.88;5039697;28;20045;-65
2021/09/07 10:20:27;;;;;;;6.53;2.00;;;;;;;22.33;43.58;101344.94;5041416;28;20408;-70
2021/09/07 10:23:06;;;;;;;7.43;1.90;;;;;;;22.39;43.97;101353.78;5041930;28;20045;-69
2021/09/07 10:26:00;;;;;;;7.63;1.67;;;;;;;22.39;43.06;101347.63;5039862;28;20063;-66
2021/09/07 10:28:42;;;;;;;27.25;6.20;;;;;;;22.14;42.41;101315.97;5042132;28;20029;-69
2021/09/07 10:31:23;;;;;;;12.85;3.17;;;;;;;22.48;41.93;101354.66;5041738;28;20025;-68
2021/09/07 10:33:52;;;;;;;27.13;6.15;;;;;;;22.68;43.16;101344.16;4996711;28;20045;-70
2021/09/07 10:36:24;;;;;;;26.92;5.70;;;;;;;22.73;43.53;101335.38;5042143;28;20483;-67
2021/09/07 10:38:55;;;;;;;6.72;2.47;;;;;;;22.85;42.31;101349.44;5047809;28;20558;-66
2021/09/07 10:41:33;;;;;;;18.75;4.63;;;;;;;22.58;41.86;101315.19;5050000;28;20472;-69
2021/09/07 10:44:00;;;;;;;11.52;3.40;;;;;;;22.82;42.06;101331.88;5050747;28;20052;-69
2021/09/07 10:46:55;;;;;;;22.58;5.80;;;;;;;22.85;40.86;101331.00;5050647;28;20112;-69
2021/09/07 10:49:33;;;;;;;9.98;2.88;;;;;;;22.91;40.74;101326.59;5049184;28;20128;-67
2021/09/07 10:52:25;;;;;;;37.78;7.15;;;;;;;23.04;41.11;101321.31;5046333;28;20075;-67
2021/09/07 10:55:11;;;;;;;21.52;5.53;;;;;;;23.03;41.38;101322.19;5003269;28;20487;-66
2021/09/07 10:57:43;;;;;;;7.65;2.72;;;;;;;22.89;42.41;101322.22;5047444;28;20029;-67
2021/09/07 11:00:21;;;;;;;9.73;2.20;;;;;;;22.84;41.94;101327.50;5048853;28;20063;-67
2021/09/07 11:02:51;;;;;;;20.48;4.45;;;;;;;22.80;41.42;101317.81;5047683;28;20072;-66
2021/09/07 11:05:25;;;;;;;22.38;6.28;;;;;;;22.81;42.29;101329.25;5049298;28;20086;-67
2021/09/07 11:08:00;;;;;;;24.13;6.90;;;;;;;22.75;42.24;101324.84;5046986;28;20079;-66
2021/09/07 11:10:35;;;;;;;22.80;3.60;;;;;;;22.69;43.00;101314.31;5048639;28;20036;-68
2021/09/07 11:13:01;;;;;;;28.67;5.95;;;;;;;22.67;42.90;101319.59;5048894;28;20048;-69
2021/09/07 11:15:35;;;;;;;26.90;6.35;;;;;;;22.70;42.24;101322.22;5050591;28;20516;-68
2021/09/07 11:18:03;;;;;;;14.77;3.35;;;;;;;22.75;41.96;101304.69;5050386;28;20037;-69
2021/09/07 11:20:42;;;;;;;12.25;2.47;;;;;;;22.88;40.80;101307.28;5052036;28;20534;-66
2021/09/07 11:23:23;;;;;;;15.63;3.42;;;;;;;23.00;41.12;101302.00;5001111;28;20442;-68